sensor_id;sensor_type;location;lat;lon;timestamp;pressure;altitude;pressure_sealevel;temperature;humidity
6090;BME280;3073;42.660;23.316;2023-05-31T00:00:17;94571.44;;;25.18;67.91
6090;BME280;3073;42.660;23.316;2023-05-31T00:02:45;94567.53;;;25.24;68.07
6090;BME280;3073;42.660;23.316;2023-05-31T00:05:12;94573.75;;;25.56;67.28
6090;BME280;3073;42.660;23.316;2023-05-31T00:07:41;94571.31;;;25.39;67.57
6090;BME280;3073;42.660;23.316;2023-05-31T00:10:08;94577.66;;;25.26;68.35
6090;BME280;3073;42.660;23.316;2023-05-31T00:12:43;94576.34;;;25.32;68.76
6090;BME280;3073;42.660;23.316;2023-05-31T00:15:10;94574.75;;;25.51;68.07
6090;BME280;3073;42.660;23.316;2023-05-31T00:17:37;94577.47;;;25.67;67.72
6090;BME280;3073;42.660;23.316;2023-05-31T00:20:06;94577.91;;;25.57;67.84
6090;BME280;3073;42.660;23.316;2023-05-31T00:22:33;94578.13;;;25.64;67.87
6090;BME280;3073;42.660;23.316;2023-05-31T00:25:00;94571.47;;;25.54;67.45
6090;BME280;3073;42.660;23.316;2023-05-31T00:27:27;94571.81;;;25.65;67.27
6090;BME280;3073;42.660;23.316;2023-05-31T00:29:54;94570.50;;;25.71;67.17
6090;BME280;3073;42.660;23.316;2023-05-31T00:32:24;94574.97;;;25.58;67.89
6090;BME280;3073;42.660;23.316;2023-05-31T00:34:51;94572.75;;;25.36;68.58
6090;BME280;3073;42.660;23.316;2023-05-31T00:37:20;94577.22;;;25.36;69.03
6090;BME280;3073;42.660;23.316;2023-05-31T00:39:47;94573.75;;;25.44;69.09
6090;BME280;3073;42.660;23.316;2023-05-31T00:42:14;94579.94;;;25.39;69.38
6090;BME280;3073;42.660;23.316;2023-05-31T00:44:41;94576.78;;;25.46;69.40
6090;BME280;3073;42.660;23.316;2023-05-31T00:47:08;94581.03;;;25.14;69.98
6090;BME280;3073;42.660;23.316;2023-05-31T00:49:35;94584.47;;;25.06;70.84
6090;BME280;3073;42.660;23.316;2023-05-31T00:52:03;94583.81;;;25.09;70.88
6090;BME280;3073;42.660;23.316;2023-05-31T00:54:31;94581.75;;;25.02;71.74
6090;BME280;3073;42.660;23.316;2023-05-31T00:56:58;94580.69;;;25.03;71.32
6090;BME280;3073;42.660;23.316;2023-05-31T00:59:27;94585.69;;;25.08;71.59
6090;BME280;3073;42.660;23.316;2023-05-31T01:01:55;94585.16;;;25.15;71.12
6090;BME280;3073;42.660;23.316;2023-05-31T01:04:23;94586.56;;;25.13;71.22
6090;BME280;3073;42.660;23.316;2023-05-31T01:06:50;94590.13;;;24.96;71.74
6090;BME280;3073;42.660;23.316;2023-05-31T01:09:17;94588.94;;;24.93;72.38
6090;BME280;3073;42.660;23.316;2023-05-31T01:12:02;94587.31;;;23.85;77.69
6090;BME280;3073;42.660;23.316;2023-05-31T01:14:42;94585.56;;;23.48;80.33
6090;BME280;3073;42.660;23.316;2023-05-31T01:17:17;94589.84;;;23.73;81.01
6090;BME280;3073;42.660;23.316;2023-05-31T01:19:51;94589.06;;;23.05;86.25
6090;BME280;3073;42.660;23.316;2023-05-31T01:22:29;94589.88;;;22.89;89.17
6090;BME280;3073;42.660;23.316;2023-05-31T01:25:25;94579.53;;;22.37;92.85
6090;BME280;3073;42.660;23.316;2023-05-31T01:27:56;94585.09;;;22.99;90.26
6090;BME280;3073;42.660;23.316;2023-05-31T01:30:24;94585.19;;;22.48;94.73
6090;BME280;3073;42.660;23.316;2023-05-31T01:32:51;94587.09;;;23.02;91.10
6090;BME280;3073;42.660;23.316;2023-05-31T01:35:19;94588.22;;;23.31;88.60
6090;BME280;3073;42.660;23.316;2023-05-31T01:37:46;94585.44;;;23.65;85.72
6090;BME280;3073;42.660;23.316;2023-05-31T01:40:15;94589.81;;;23.15;89.58
6090;BME280;3073;42.660;23.316;2023-05-31T01:42:43;94582.38;;;23.34;89.16
6090;BME280;3073;42.660;23.316;2023-05-31T01:45:14;94586.84;;;22.87;91.56
6090;BME280;3073;42.660;23.316;2023-05-31T01:47:42;94584.47;;;23.78;86.04
6090;BME280;3073;42.660;23.316;2023-05-31T01:50:10;94583.91;;;23.93;83.33
6090;BME280;3073;42.660;23.316;2023-05-31T01:52:39;94579.16;;;24.37;80.96
6090;BME280;3073;42.660;23.316;2023-05-31T01:55:07;94588.63;;;24.74;78.40
6090;BME280;3073;42.660;23.316;2023-05-31T01:57:37;94586.69;;;24.71;77.65
6090;BME280;3073;42.660;23.316;2023-05-31T02:00:06;94583.81;;;24.31;79.14
6090;BME280;3073;42.660;23.316;2023-05-31T02:02:40;94584.47;;;24.61;77.93
6090;BME280;3073;42.660;23.316;2023-05-31T02:05:08;94578.47;;;24.28;79.44
6090;BME280;3073;42.660;23.316;2023-05-31T02:07:38;94589.81;;;24.65;77.70
6090;BME280;3073;42.660;23.316;2023-05-31T02:10:07;94595.38;;;25.20;74.85
6090;BME280;3073;42.660;23.316;2023-05-31T02:12:34;94592.56;;;25.25;73.83
6090;BME280;3073;42.660;23.316;2023-05-31T02:15:01;94594.22;;;25.42;72.91
6090;BME280;3073;42.660;23.316;2023-05-31T02:17:29;94592.22;;;25.39;72.48
6090;BME280;3073;42.660;23.316;2023-05-31T02:19:59;94589.63;;;25.27;72.53
6090;BME280;3073;42.660;23.316;2023-05-31T02:22:27;94594.66;;;25.44;71.78
6090;BME280;3073;42.660;23.316;2023-05-31T02:24:54;94587.22;;;25.46;71.47
6090;BME280;3073;42.660;23.316;2023-05-31T02:27:21;94587.56;;;25.32;71.97
6090;BME280;3073;42.660;23.316;2023-05-31T02:29:48;94584.03;;;24.92;73.29
6090;BME280;3073;42.660;23.316;2023-05-31T02:32:15;94587.34;;;24.80;74.70
6090;BME280;3073;42.660;23.316;2023-05-31T02:34:43;94597.41;;;24.90;73.86
6090;BME280;3073;42.660;23.316;2023-05-31T02:37:11;94601.19;;;24.60;75.38
6090;BME280;3073;42.660;23.316;2023-05-31T02:39:38;94596.19;;;24.55;76.17
6090;BME280;3073;42.660;23.316;2023-05-31T02:42:08;94583.28;;;24.91;74.57
6090;BME280;3073;42.660;23.316;2023-05-31T02:44:35;94586.59;;;25.25;73.28
6090;BME280;3073;42.660;23.316;2023-05-31T02:47:02;94592.22;;;25.39;72.26
6090;BME280;3073;42.660;23.316;2023-05-31T02:49:29;94584.88;;;25.53;71.71
6090;BME280;3073;42.660;23.316;2023-05-31T02:51:56;94586.28;;;25.50;71.44
6090;BME280;3073;42.660;23.316;2023-05-31T02:54:25;94584.88;;;25.65;71.16
6090;BME280;3073;42.660;23.316;2023-05-31T02:56:51;94590.28;;;25.72;70.65
6090;BME280;3073;42.660;23.316;2023-05-31T02:59:18;94591.16;;;25.76;70.97
6090;BME280;3073;42.660;23.316;2023-05-31T03:01:45;94592.59;;;25.74;71.08
6090;BME280;3073;42.660;23.316;2023-05-31T03:04:12;94593.78;;;25.88;70.27
6090;BME280;3073;42.660;23.316;2023-05-31T03:06:39;94595.72;;;25.79;70.38
6090;BME280;3073;42.660;23.316;2023-05-31T03:09:07;94594.50;;;25.89;70.08
6090;BME280;3073;42.660;23.316;2023-05-31T03:11:36;94603.22;;;26.05;69.59
6090;BME280;3073;42.660;23.316;2023-05-31T03:14:02;94591.59;;;25.90;69.73
6090;BME280;3073;42.660;23.316;2023-05-31T03:16:29;94596.56;;;25.95;69.64
6090;BME280;3073;42.660;23.316;2023-05-31T03:18:56;94591.91;;;26.01;69.59
6090;BME280;3073;42.660;23.316;2023-05-31T03:21:24;94600.06;;;25.99;69.79
6090;BME280;3073;42.660;23.316;2023-05-31T03:23:51;94597.13;;;25.89;69.56
6090;BME280;3073;42.660;23.316;2023-05-31T03:26:18;94607.41;;;25.70;70.14
6090;BME280;3073;42.660;23.316;2023-05-31T03:28:46;94599.66;;;25.37;71.13
6090;BME280;3073;42.660;23.316;2023-05-31T03:31:14;94601.63;;;25.64;70.70
6090;BME280;3073;42.660;23.316;2023-05-31T03:33:40;94605.47;;;25.54;70.64
6090;BME280;3073;42.660;23.316;2023-05-31T03:36:08;94604.03;;;25.81;69.44
6090;BME280;3073;42.660;23.316;2023-05-31T03:38:35;94615.34;;;25.73;70.16
6090;BME280;3073;42.660;23.316;2023-05-31T03:41:02;94609.03;;;25.86;69.51
6090;BME280;3073;42.660;23.316;2023-05-31T03:43:28;94608.25;;;25.86;69.92
6090;BME280;3073;42.660;23.316;2023-05-31T03:45:57;94617.50;;;26.07;69.26
6090;BME280;3073;42.660;23.316;2023-05-31T03:48:26;94611.41;;;25.91;69.92
6090;BME280;3073;42.660;23.316;2023-05-31T03:50:53;94622.53;;;25.52;71.12
6090;BME280;3073;42.660;23.316;2023-05-31T03:53:20;94616.66;;;25.79;70.65
6090;BME280;3073;42.660;23.316;2023-05-31T03:55:46;94621.00;;;25.63;70.73
6090;BME280;3073;42.660;23.316;2023-05-31T03:58:13;94624.72;;;25.74;71.04
6090;BME280;3073;42.660;23.316;2023-05-31T04:00:40;94625.00;;;26.09;70.36
6090;BME280;3073;42.660;23.316;2023-05-31T04:03:09;94625.44;;;26.11;70.17
6090;BME280;3073;42.660;23.316;2023-05-31T04:05:37;94628.81;;;25.99;69.77
6090;BME280;3073;42.660;23.316;2023-05-31T04:08:04;94628.81;;;26.11;69.85
6090;BME280;3073;42.660;23.316;2023-05-31T04:10:31;94626.00;;;25.92;69.82
6090;BME280;3073;42.660;23.316;2023-05-31T04:13:00;94630.16;;;26.18;69.00
6090;BME280;3073;42.660;23.316;2023-05-31T04:15:27;94627.66;;;25.60;70.51
6090;BME280;3073;42.660;23.316;2023-05-31T04:17:54;94633.44;;;25.54;71.33
6090;BME280;3073;42.660;23.316;2023-05-31T04:20:23;94626.00;;;25.92;69.64
6090;BME280;3073;42.660;23.316;2023-05-31T04:22:54;94635.16;;;25.98;68.86
6090;BME280;3073;42.660;23.316;2023-05-31T04:25:21;94635.06;;;25.71;69.23
6090;BME280;3073;42.660;23.316;2023-05-31T04:27:48;94635.81;;;25.83;68.63
6090;BME280;3073;42.660;23.316;2023-05-31T04:30:15;94641.03;;;26.07;68.23
6090;BME280;3073;42.660;23.316;2023-05-31T04:32:42;94637.75;;;25.38;70.44
6090;BME280;3073;42.660;23.316;2023-05-31T04:35:09;94644.53;;;25.87;69.11
6090;BME280;3073;42.660;23.316;2023-05-31T04:37:38;94639.84;;;25.56;70.36
6090;BME280;3073;42.660;23.316;2023-05-31T04:40:07;94649.56;;;25.80;69.37
6090;BME280;3073;42.660;23.316;2023-05-31T04:42:35;94651.47;;;25.47;70.50
6090;BME280;3073;42.660;23.316;2023-05-31T04:45:04;94654.34;;;25.66;70.08
6090;BME280;3073;42.660;23.316;2023-05-31T04:47:32;94649.75;;;24.52;74.84
6090;BME280;3073;42.660;23.316;2023-05-31T04:49:59;94649.94;;;25.34;71.46
6090;BME280;3073;42.660;23.316;2023-05-31T04:52:27;94651.50;;;25.02;73.25
6090;BME280;3073;42.660;23.316;2023-05-31T04:54:56;94653.59;;;25.08;73.79
6090;BME280;3073;42.660;23.316;2023-05-31T04:57:23;94646.06;;;25.52;72.17
6090;BME280;3073;42.660;23.316;2023-05-31T04:59:51;94655.50;;;25.44;72.62
6090;BME280;3073;42.660;23.316;2023-05-31T05:02:18;94657.41;;;25.68;71.31
6090;BME280;3073;42.660;23.316;2023-05-31T05:04:46;94670.91;;;25.70;70.99
6090;BME280;3073;42.660;23.316;2023-05-31T05:07:14;94669.16;;;26.10;69.05
6090;BME280;3073;42.660;23.316;2023-05-31T05:09:41;94666.00;;;26.57;67.99
6090;BME280;3073;42.660;23.316;2023-05-31T05:12:10;94672.94;;;26.37;67.23
6090;BME280;3073;42.660;23.316;2023-05-31T05:14:37;94678.28;;;26.41;67.53
6090;BME280;3073;42.660;23.316;2023-05-31T05:17:04;94673.06;;;25.92;68.44
6090;BME280;3073;42.660;23.316;2023-05-31T05:19:31;94680.28;;;26.07;67.99
6090;BME280;3073;42.660;23.316;2023-05-31T05:21:58;94684.59;;;26.40;67.48
6090;BME280;3073;42.660;23.316;2023-05-31T05:24:25;94690.31;;;26.18;68.13
6090;BME280;3073;42.660;23.316;2023-05-31T05:26:52;94693.06;;;26.49;67.53
6090;BME280;3073;42.660;23.316;2023-05-31T05:29:20;94687.59;;;26.02;68.84
6090;BME280;3073;42.660;23.316;2023-05-31T05:31:47;94690.16;;;26.90;66.70
6090;BME280;3073;42.660;23.316;2023-05-31T05:34:15;94686.16;;;26.04;68.64
6090;BME280;3073;42.660;23.316;2023-05-31T05:36:42;94695.19;;;25.58;70.74
6090;BME280;3073;42.660;23.316;2023-05-31T05:39:09;94697.16;;;26.10;69.68
6090;BME280;3073;42.660;23.316;2023-05-31T05:41:36;94693.00;;;26.33;68.00
6090;BME280;3073;42.660;23.316;2023-05-31T05:44:03;94696.19;;;25.90;69.14
6090;BME280;3073;42.660;23.316;2023-05-31T05:46:31;94694.00;;;25.23;73.01
6090;BME280;3073;42.660;23.316;2023-05-31T05:48:58;94699.16;;;24.37;76.84
6090;BME280;3073;42.660;23.316;2023-05-31T05:51:25;94694.53;;;25.74;73.07
6090;BME280;3073;42.660;23.316;2023-05-31T05:53:51;94699.44;;;25.99;71.46
6090;BME280;3073;42.660;23.316;2023-05-31T05:56:18;94696.16;;;26.02;69.84
6090;BME280;3073;42.660;23.316;2023-05-31T05:58:46;94699.66;;;25.70;71.76
6090;BME280;3073;42.660;23.316;2023-05-31T06:01:14;94705.31;;;25.96;71.10
6090;BME280;3073;42.660;23.316;2023-05-31T06:03:47;94701.63;;;25.97;70.18
6090;BME280;3073;42.660;23.316;2023-05-31T06:06:14;94698.47;;;26.04;69.68
6090;BME280;3073;42.660;23.316;2023-05-31T06:08:44;94705.13;;;26.38;68.92
6090;BME280;3073;42.660;23.316;2023-05-31T06:11:11;94697.81;;;27.11;66.60
6090;BME280;3073;42.660;23.316;2023-05-31T06:13:38;94702.00;;;27.00;65.77
6090;BME280;3073;42.660;23.316;2023-05-31T06:16:05;94701.50;;;28.00;63.46
6090;BME280;3073;42.660;23.316;2023-05-31T06:18:32;94704.72;;;28.25;62.96
6090;BME280;3073;42.660;23.316;2023-05-31T06:21:01;94708.41;;;28.40;61.92
6090;BME280;3073;42.660;23.316;2023-05-31T06:23:28;94706.47;;;28.37;59.94
6090;BME280;3073;42.660;23.316;2023-05-31T06:25:55;94701.06;;;28.30;60.33
6090;BME280;3073;42.660;23.316;2023-05-31T06:28:22;94707.06;;;28.30;59.46
6090;BME280;3073;42.660;23.316;2023-05-31T06:30:49;94705.66;;;28.68;59.00
6090;BME280;3073;42.660;23.316;2023-05-31T06:33:16;94706.31;;;29.03;58.75
6090;BME280;3073;42.660;23.316;2023-05-31T06:35:43;94701.97;;;29.52;57.84
6090;BME280;3073;42.660;23.316;2023-05-31T06:38:11;94701.44;;;29.43;57.66
6090;BME280;3073;42.660;23.316;2023-05-31T06:40:49;94709.16;;;29.78;55.78
6090;BME280;3073;42.660;23.316;2023-05-31T06:43:27;94703.63;;;30.36;54.44
6090;BME280;3073;42.660;23.316;2023-05-31T06:46:20;94701.66;;;30.03;54.23
6090;BME280;3073;42.660;23.316;2023-05-31T06:48:58;94700.34;;;29.67;54.79
6090;BME280;3073;42.660;23.316;2023-05-31T06:51:32;94706.38;;;29.90;54.62
6090;BME280;3073;42.660;23.316;2023-05-31T06:54:01;94708.88;;;30.58;53.81
6090;BME280;3073;42.660;23.316;2023-05-31T06:56:28;94701.50;;;30.71;53.19
6090;BME280;3073;42.660;23.316;2023-05-31T06:58:55;94704.72;;;30.57;53.66
6090;BME280;3073;42.660;23.316;2023-05-31T07:01:22;94702.97;;;29.90;53.10
6090;BME280;3073;42.660;23.316;2023-05-31T07:03:49;94706.69;;;30.64;52.77
6090;BME280;3073;42.660;23.316;2023-05-31T07:06:16;94700.75;;;30.71;53.19
6090;BME280;3073;42.660;23.316;2023-05-31T07:08:46;94705.91;;;30.63;52.36
6090;BME280;3073;42.660;23.316;2023-05-31T07:11:15;94703.41;;;30.44;52.30
6090;BME280;3073;42.660;23.316;2023-05-31T07:13:45;94712.16;;;29.99;53.59
6090;BME280;3073;42.660;23.316;2023-05-31T07:16:20;94711.91;;;30.34;53.19
6090;BME280;3073;42.660;23.316;2023-05-31T07:18:47;94705.44;;;30.28;53.36
6090;BME280;3073;42.660;23.316;2023-05-31T07:21:14;94710.88;;;30.98;51.33
6090;BME280;3073;42.660;23.316;2023-05-31T07:23:41;94708.28;;;31.02;50.80
6090;BME280;3073;42.660;23.316;2023-05-31T07:26:08;94708.22;;;31.69;49.80
6090;BME280;3073;42.660;23.316;2023-05-31T07:28:40;94707.56;;;31.82;49.49
6090;BME280;3073;42.660;23.316;2023-05-31T07:31:08;94705.88;;;30.60;51.08
6090;BME280;3073;42.660;23.316;2023-05-31T07:33:35;94708.84;;;31.55;49.87
6090;BME280;3073;42.660;23.316;2023-05-31T07:36:01;94706.84;;;30.22;51.24
6090;BME280;3073;42.660;23.316;2023-05-31T07:38:28;94707.19;;;30.77;51.38
6090;BME280;3073;42.660;23.316;2023-05-31T07:40:56;94697.13;;;30.82;50.99
6090;BME280;3073;42.660;23.316;2023-05-31T07:43:23;94699.16;;;31.33;50.36
6090;BME280;3073;42.660;23.316;2023-05-31T07:45:52;94703.56;;;32.02;48.92
6090;BME280;3073;42.660;23.316;2023-05-31T07:48:20;94695.78;;;31.73;48.75
6090;BME280;3073;42.660;23.316;2023-05-31T07:50:47;94699.19;;;31.73;49.24
6090;BME280;3073;42.660;23.316;2023-05-31T07:53:14;94696.84;;;32.08;47.43
6090;BME280;3073;42.660;23.316;2023-05-31T07:55:41;94697.25;;;31.67;48.21
6090;BME280;3073;42.660;23.316;2023-05-31T07:58:13;94701.72;;;31.62;48.46
6090;BME280;3073;42.660;23.316;2023-05-31T08:00:40;94700.66;;;32.14;46.96
6090;BME280;3073;42.660;23.316;2023-05-31T08:03:09;94690.94;;;32.29;46.49
6090;BME280;3073;42.660;23.316;2023-05-31T08:05:44;94696.13;;;32.84;45.70
6090;BME280;3073;42.660;23.316;2023-05-31T08:08:17;94694.06;;;31.94;46.92
6090;BME280;3073;42.660;23.316;2023-05-31T08:10:44;94693.06;;;32.71;46.45
6090;BME280;3073;42.660;23.316;2023-05-31T08:13:11;94695.09;;;33.09;45.74
6090;BME280;3073;42.660;23.316;2023-05-31T08:15:38;94691.22;;;32.82;45.18
6090;BME280;3073;42.660;23.316;2023-05-31T08:18:06;94686.25;;;32.70;45.33
6090;BME280;3073;42.660;23.316;2023-05-31T08:20:35;94686.91;;;33.64;44.07
6090;BME280;3073;42.660;23.316;2023-05-31T08:23:02;94691.31;;;33.10;44.18
6090;BME280;3073;42.660;23.316;2023-05-31T08:25:29;94692.94;;;32.53;45.03
6090;BME280;3073;42.660;23.316;2023-05-31T08:27:56;94699.53;;;32.84;44.81
6090;BME280;3073;42.660;23.316;2023-05-31T08:30:22;94684.94;;;32.39;45.49
6090;BME280;3073;42.660;23.316;2023-05-31T08:32:49;94686.53;;;31.49;46.88
6090;BME280;3073;42.660;23.316;2023-05-31T08:35:16;94689.63;;;32.67;45.82
6090;BME280;3073;42.660;23.316;2023-05-31T08:37:44;94685.00;;;32.50;46.80
6090;BME280;3073;42.660;23.316;2023-05-31T08:40:12;94683.09;;;34.07;44.65
6090;BME280;3073;42.660;23.316;2023-05-31T08:42:40;94683.25;;;34.94;42.81
6090;BME280;3073;42.660;23.316;2023-05-31T08:45:10;94677.94;;;34.98;40.69
6090;BME280;3073;42.660;23.316;2023-05-31T08:47:39;94669.44;;;35.28;39.72
6090;BME280;3073;42.660;23.316;2023-05-31T08:50:10;94675.53;;;35.25;40.20
6090;BME280;3073;42.660;23.316;2023-05-31T08:52:38;94666.09;;;33.87;41.71
6090;BME280;3073;42.660;23.316;2023-05-31T08:55:07;94669.72;;;32.98;44.13
6090;BME280;3073;42.660;23.316;2023-05-31T08:57:35;94663.44;;;33.59;43.85
6090;BME280;3073;42.660;23.316;2023-05-31T09:00:04;94658.47;;;33.40;43.33
6090;BME280;3073;42.660;23.316;2023-05-31T09:02:37;94659.78;;;32.63;43.45
6090;BME280;3073;42.660;23.316;2023-05-31T09:05:06;94658.84;;;33.28;42.82
6090;BME280;3073;42.660;23.316;2023-05-31T09:07:36;94653.56;;;31.69;44.81
6090;BME280;3073;42.660;23.316;2023-05-31T09:10:04;94648.25;;;32.24;45.11
6090;BME280;3073;42.660;23.316;2023-05-31T09:12:34;94646.03;;;33.47;43.80
6090;BME280;3073;42.660;23.316;2023-05-31T09:15:01;94647.34;;;32.67;42.54
6090;BME280;3073;42.660;23.316;2023-05-31T09:17:29;94652.06;;;33.97;42.54
6090;BME280;3073;42.660;23.316;2023-05-31T09:19:59;94639.94;;;34.25;40.38
6090;BME280;3073;42.660;23.316;2023-05-31T09:22:26;94638.06;;;33.37;42.96
6090;BME280;3073;42.660;23.316;2023-05-31T09:24:57;94634.78;;;30.97;45.19
6090;BME280;3073;42.660;23.316;2023-05-31T09:27:26;94634.50;;;30.72;45.89
6090;BME280;3073;42.660;23.316;2023-05-31T09:29:55;94632.50;;;31.80;45.53
6090;BME280;3073;42.660;23.316;2023-05-31T09:32:22;94637.94;;;30.76;47.38
6090;BME280;3073;42.660;23.316;2023-05-31T09:34:49;94635.13;;;31.32;46.76
6090;BME280;3073;42.660;23.316;2023-05-31T09:37:21;94629.50;;;31.37;45.72
6090;BME280;3073;42.660;23.316;2023-05-31T09:39:54;94639.53;;;32.16;44.40
6090;BME280;3073;42.660;23.316;2023-05-31T09:42:21;94639.97;;;32.22;44.07
6090;BME280;3073;42.660;23.316;2023-05-31T09:44:48;94635.78;;;31.66;44.93
6090;BME280;3073;42.660;23.316;2023-05-31T09:47:16;94630.84;;;32.08;45.73
6090;BME280;3073;42.660;23.316;2023-05-31T09:49:49;94631.72;;;31.72;46.31
6090;BME280;3073;42.660;23.316;2023-05-31T09:52:16;94619.16;;;31.14;46.67
6090;BME280;3073;42.660;23.316;2023-05-31T09:54:44;94623.91;;;30.65;48.16
6090;BME280;3073;42.660;23.316;2023-05-31T09:57:28;94616.81;;;31.09;48.09
6090;BME280;3073;42.660;23.316;2023-05-31T09:59:56;94616.22;;;31.27;47.77
6090;BME280;3073;42.660;23.316;2023-05-31T10:02:25;94617.34;;;30.52;48.95
6090;BME280;3073;42.660;23.316;2023-05-31T10:04:54;94618.47;;;31.25;50.09
6090;BME280;3073;42.660;23.316;2023-05-31T10:07:22;94617.16;;;31.99;49.04
6090;BME280;3073;42.660;23.316;2023-05-31T10:09:49;94623.88;;;31.39;50.44
6090;BME280;3073;42.660;23.316;2023-05-31T10:12:18;94625.31;;;31.77;48.70
6090;BME280;3073;42.660;23.316;2023-05-31T10:14:49;94618.72;;;31.53;48.22
6090;BME280;3073;42.660;23.316;2023-05-31T10:17:24;94614.72;;;30.52;48.80
6090;BME280;3073;42.660;23.316;2023-05-31T10:19:59;94619.25;;;31.73;47.49
6090;BME280;3073;42.660;23.316;2023-05-31T10:22:29;94616.94;;;31.64;48.06
6090;BME280;3073;42.660;23.316;2023-05-31T10:25:02;94613.47;;;30.79;47.86
6090;BME280;3073;42.660;23.316;2023-05-31T10:27:35;94615.88;;;31.79;46.91
6090;BME280;3073;42.660;23.316;2023-05-31T10:30:03;94607.63;;;32.53;46.68
6090;BME280;3073;42.660;23.316;2023-05-31T10:32:34;94592.34;;;33.26;43.77
6090;BME280;3073;42.660;23.316;2023-05-31T10:35:03;94606.63;;;34.17;43.93
6090;BME280;3073;42.660;23.316;2023-05-31T10:37:31;94598.34;;;33.05;42.72
6090;BME280;3073;42.660;23.316;2023-05-31T10:40:02;94603.03;;;32.36;43.51
6090;BME280;3073;42.660;23.316;2023-05-31T10:42:37;94610.50;;;32.20;42.77
6090;BME280;3073;42.660;23.316;2023-05-31T10:45:14;94601.59;;;30.26;45.02
6090;BME280;3073;42.660;23.316;2023-05-31T10:47:51;94592.81;;;29.88;49.77
6090;BME280;3073;42.660;23.316;2023-05-31T10:50:20;94591.59;;;30.08;51.01
6090;BME280;3073;42.660;23.316;2023-05-31T10:52:50;94602.06;;;30.64;49.32
6090;BME280;3073;42.660;23.316;2023-05-31T10:55:19;94598.03;;;31.11;49.23
6090;BME280;3073;42.660;23.316;2023-05-31T10:57:50;94594.84;;;30.58;50.69
6090;BME280;3073;42.660;23.316;2023-05-31T11:00:19;94589.47;;;29.20;51.98
6090;BME280;3073;42.660;23.316;2023-05-31T11:02:49;94593.56;;;28.94;52.09
6090;BME280;3073;42.660;23.316;2023-05-31T11:05:20;94587.13;;;29.60;52.10
6090;BME280;3073;42.660;23.316;2023-05-31T11:07:48;94587.78;;;30.69;50.25
6090;BME280;3073;42.660;23.316;2023-05-31T11:10:26;94594.78;;;31.28;48.53
6090;BME280;3073;42.660;23.316;2023-05-31T11:12:56;94592.03;;;31.61;47.46
6090;BME280;3073;42.660;23.316;2023-05-31T11:15:23;94589.22;;;31.91;47.39
6090;BME280;3073;42.660;23.316;2023-05-31T11:18:06;94586.75;;;31.61;47.59
6090;BME280;3073;42.660;23.316;2023-05-31T11:20:34;94583.31;;;31.54;48.37
6090;BME280;3073;42.660;23.316;2023-05-31T11:23:26;94587.44;;;32.09;47.27
6090;BME280;3073;42.660;23.316;2023-05-31T11:26:14;94582.72;;;32.54;46.16
6090;BME280;3073;42.660;23.316;2023-05-31T11:28:56;94571.53;;;33.74;44.81
6090;BME280;3073;42.660;23.316;2023-05-31T11:32:00;94577.25;;;34.77;41.10
6090;BME280;3073;42.660;23.316;2023-05-31T11:34:34;94566.06;;;35.06;41.56
6090;BME280;3073;42.660;23.316;2023-05-31T11:37:02;94561.22;;;35.87;39.74
6090;BME280;3073;42.660;23.316;2023-05-31T11:39:29;94557.53;;;36.14;38.90
6090;BME280;3073;42.660;23.316;2023-05-31T11:41:57;94558.47;;;35.97;38.67
6090;BME280;3073;42.660;23.316;2023-05-31T11:44:28;94558.84;;;35.58;38.61
6090;BME280;3073;42.660;23.316;2023-05-31T11:47:05;94553.63;;;34.24;40.00
6090;BME280;3073;42.660;23.316;2023-05-31T11:49:34;94549.97;;;32.97;41.58
6090;BME280;3073;42.660;23.316;2023-05-31T11:52:01;94545.03;;;32.78;42.44
6090;BME280;3073;42.660;23.316;2023-05-31T11:54:29;94550.59;;;32.45;43.29
6090;BME280;3073;42.660;23.316;2023-05-31T11:56:59;94554.03;;;31.73;44.28
6090;BME280;3073;42.660;23.316;2023-05-31T11:59:26;94553.28;;;31.76;44.21
6090;BME280;3073;42.660;23.316;2023-05-31T12:01:57;94558.13;;;31.16;44.71
6090;BME280;3073;42.660;23.316;2023-05-31T12:04:30;94562.72;;;30.45;47.15
6090;BME280;3073;42.660;23.316;2023-05-31T12:06:59;94559.09;;;30.60;47.18
6090;BME280;3073;42.660;23.316;2023-05-31T12:09:26;94555.75;;;29.74;49.01
6090;BME280;3073;42.660;23.316;2023-05-31T12:11:53;94561.13;;;29.55;49.29
6090;BME280;3073;42.660;23.316;2023-05-31T12:14:22;94561.78;;;29.75;50.19
6090;BME280;3073;42.660;23.316;2023-05-31T12:16:49;94562.00;;;29.89;49.83
6090;BME280;3073;42.660;23.316;2023-05-31T12:19:17;94560.25;;;29.47;50.48
6090;BME280;3073;42.660;23.316;2023-05-31T12:21:44;94555.56;;;29.86;50.74
6090;BME280;3073;42.660;23.316;2023-05-31T12:24:13;94550.03;;;29.20;50.37
6090;BME280;3073;42.660;23.316;2023-05-31T12:26:42;94545.63;;;29.76;49.95
6090;BME280;3073;42.660;23.316;2023-05-31T12:29:10;94541.41;;;29.68;49.84
6090;BME280;3073;42.660;23.316;2023-05-31T12:31:38;94549.22;;;29.91;49.25
6090;BME280;3073;42.660;23.316;2023-05-31T12:34:09;94544.56;;;29.81;49.24
6090;BME280;3073;42.660;23.316;2023-05-31T12:36:37;94545.44;;;28.90;51.73
6090;BME280;3073;42.660;23.316;2023-05-31T12:39:07;94541.00;;;28.94;55.17
6090;BME280;3073;42.660;23.316;2023-05-31T12:41:36;94537.28;;;28.34;58.75
6090;BME280;3073;42.660;23.316;2023-05-31T12:44:03;94539.28;;;28.41;56.98
6090;BME280;3073;42.660;23.316;2023-05-31T12:46:37;94541.78;;;28.15;61.16
6090;BME280;3073;42.660;23.316;2023-05-31T12:49:12;94560.16;;;26.15;71.81
6090;BME280;3073;42.660;23.316;2023-05-31T12:51:39;94548.03;;;25.34;84.16
6090;BME280;3073;42.660;23.316;2023-05-31T12:54:10;94545.97;;;25.39;85.85
6090;BME280;3073;42.660;23.316;2023-05-31T12:56:39;94545.19;;;24.90;96.46
6090;BME280;3073;42.660;23.316;2023-05-31T12:59:06;94545.00;;;24.30;100.00
6090;BME280;3073;42.660;23.316;2023-05-31T13:01:34;94539.00;;;24.08;100.00
6090;BME280;3073;42.660;23.316;2023-05-31T13:04:03;94551.09;;;23.42;100.00
6090;BME280;3073;42.660;23.316;2023-05-31T13:06:30;94552.75;;;23.76;100.00
6090;BME280;3073;42.660;23.316;2023-05-31T13:08:57;94547.00;;;23.33;100.00
6090;BME280;3073;42.660;23.316;2023-05-31T13:11:24;94563.03;;;23.05;100.00
6090;BME280;3073;42.660;23.316;2023-05-31T13:13:53;94559.78;;;23.17;100.00
6090;BME280;3073;42.660;23.316;2023-05-31T13:16:20;94565.78;;;23.47;100.00
6090;BME280;3073;42.660;23.316;2023-05-31T13:18:47;94564.22;;;23.54;100.00